createdAt,value
2018-03-14T00:00:36.488Z,5.67
2018-03-14T00:03:05.040Z,6.27
2018-03-14T00:05:33.604Z,5.77
2018-03-14T00:08:02.232Z,6.27
2018-03-14T00:10:30.792Z,5.77
2018-03-14T00:12:59.356Z,6.57
2018-03-14T00:15:29.685Z,4.57
2018-03-14T00:17:58.248Z,3.07
2018-03-14T00:20:26.808Z,3.17
2018-03-14T00:22:55.418Z,1.93
2018-03-14T00:25:23.980Z,1.90
2018-03-14T00:27:52.540Z,2.20
2018-03-14T00:30:21.404Z,2.40
2018-03-14T00:32:49.965Z,1.70
2018-03-14T00:35:18.524Z,2.30
2018-03-14T00:37:47.145Z,2.10
2018-03-14T00:40:15.744Z,3.07
2018-03-14T00:42:44.304Z,2.33
2018-03-14T00:45:13.109Z,4.90
2018-03-14T00:47:41.675Z,3.30
2018-03-14T00:50:10.240Z,2.90
2018-03-14T00:52:38.844Z,2.17
2018-03-14T00:55:07.404Z,2.40
2018-03-14T00:57:35.956Z,2.60
2018-03-14T01:00:04.641Z,2.90
2018-03-14T01:02:33.967Z,3.47
2018-03-14T01:05:02.528Z,3.43
2018-03-14T01:07:32.088Z,3.33
2018-03-14T01:10:00.659Z,2.73
2018-03-14T01:12:29.284Z,2.10
2018-03-14T01:14:58.048Z,3.17
2018-03-14T01:17:26.664Z,2.80
2018-03-14T01:19:55.231Z,4.80
2018-03-14T01:22:23.836Z,3.93
2018-03-14T01:24:53.164Z,2.50
2018-03-14T01:27:21.721Z,2.87
2018-03-14T01:29:51.303Z,4.60
2018-03-14T01:32:20.648Z,2.83
2018-03-14T01:34:49.968Z,3.70
2018-03-14T01:37:18.689Z,4.23
2018-03-14T01:39:47.256Z,2.77
2018-03-14T01:42:15.821Z,3.13
2018-03-14T01:44:44.645Z,4.20
2018-03-14T01:47:13.232Z,3.17
2018-03-14T01:49:41.812Z,3.67
2018-03-14T01:52:10.591Z,3.50
2018-03-14T01:54:39.148Z,3.43
2018-03-14T01:57:07.717Z,5.63
2018-03-14T01:59:36.331Z,3.30
2018-03-14T02:02:04.900Z,5.57
2018-03-14T02:04:33.469Z,6.97
2018-03-14T02:07:02.208Z,7.23
2018-03-14T02:09:30.760Z,6.47
2018-03-14T02:11:59.326Z,5.07
2018-03-14T02:14:28.020Z,3.83
2018-03-14T02:16:56.588Z,3.40
2018-03-14T02:19:25.192Z,4.97
2018-03-14T02:21:53.789Z,4.53
2018-03-14T02:24:22.337Z,3.37
2018-03-14T02:26:50.896Z,4.27
2018-03-14T02:29:20.573Z,4.17
2018-03-14T02:31:49.115Z,3.53
2018-03-14T02:34:17.703Z,3.90
2018-03-14T02:39:42.457Z,4.17
2018-03-14T02:42:11.091Z,3.87
2018-03-14T02:44:39.677Z,3.37
2018-03-14T02:47:08.985Z,8.30
2018-03-14T02:49:38.436Z,6.67
2018-03-14T02:52:06.984Z,4.63
2018-03-14T02:54:35.537Z,3.87
2018-03-14T02:57:05.251Z,3.90
2018-03-14T02:59:34.908Z,4.67
2018-03-14T03:02:03.471Z,7.30
2018-03-14T03:04:32.281Z,3.47
2018-03-14T03:07:00.833Z,3.43
2018-03-14T03:09:29.380Z,4.13
2018-03-14T03:11:58.126Z,3.13
2018-03-14T03:14:26.676Z,4.43
2018-03-14T03:16:55.979Z,4.23
2018-03-14T03:19:24.616Z,4.43
2018-03-14T03:21:53.161Z,7.40
2018-03-14T03:24:21.707Z,4.23
2018-03-14T03:26:51.077Z,4.27
2018-03-14T03:29:19.631Z,2.57
2018-03-14T03:31:48.168Z,2.80
2018-03-14T03:34:17.742Z,3.07
2018-03-14T03:36:46.293Z,5.43
2018-03-14T03:39:14.845Z,32.83
2018-03-14T03:41:44.214Z,31.60
2018-03-14T03:44:12.764Z,32.93
2018-03-14T03:46:41.421Z,9.23
2018-03-14T03:49:10.778Z,3.00
2018-03-14T03:51:39.316Z,3.70
2018-03-14T03:54:08.629Z,2.83
2018-03-14T03:56:37.236Z,3.07
2018-03-14T03:59:05.784Z,3.70
2018-03-14T04:01:35.124Z,6.23
2018-03-14T04:04:03.920Z,4.87
2018-03-14T04:06:33.238Z,4.83
2018-03-14T04:09:01.785Z,7.83
2018-03-14T04:11:30.664Z,4.37
2018-03-14T04:13:59.976Z,7.67
2018-03-14T04:16:28.524Z,5.63
2018-03-14T04:18:57.121Z,5.87
2018-03-14T04:21:25.664Z,7.77
2018-03-14T04:23:54.226Z,6.63
2018-03-14T04:26:23.799Z,15.20
2018-03-14T04:28:52.348Z,7.13
2018-03-14T04:31:20.900Z,10.33
2018-03-14T04:33:50.551Z,8.77
2018-03-14T04:36:19.101Z,9.40
2018-03-14T04:38:48.404Z,8.83
2018-03-14T04:41:17.762Z,9.00
2018-03-14T04:43:46.313Z,12.07
2018-03-14T04:46:14.860Z,17.60
2018-03-14T04:48:44.216Z,14.60
2018-03-14T04:51:12.770Z,13.47
2018-03-14T04:53:41.316Z,10.70
2018-03-14T04:56:10.688Z,6.80
2018-03-14T04:58:39.237Z,7.47
2018-03-14T05:01:07.788Z,7.60
2018-03-14T05:03:36.524Z,14.63
2018-03-14T05:06:05.097Z,14.37
2018-03-14T05:08:33.637Z,6.27
2018-03-14T05:11:02.225Z,7.57
2018-03-14T05:13:31.568Z,5.13
2018-03-14T05:16:00.114Z,5.43
2018-03-14T05:18:29.672Z,6.47
2018-03-14T05:20:58.226Z,7.40
2018-03-14T05:23:26.764Z,7.70
2018-03-14T05:25:56.263Z,15.00
2018-03-14T05:28:25.575Z,15.83
2018-03-14T05:30:54.888Z,15.13
2018-03-14T05:33:23.477Z,12.53
2018-03-14T05:35:52.024Z,11.93
2018-03-14T05:38:21.341Z,13.57
2018-03-14T05:40:50.032Z,13.30
2018-03-14T05:43:18.600Z,10.47
2018-03-14T05:45:47.154Z,8.10
2018-03-14T05:48:16.706Z,6.77
2018-03-14T05:50:45.249Z,19.33
2018-03-14T05:53:14.561Z,22.33
2018-03-14T05:55:43.374Z,14.67
2018-03-14T05:58:11.926Z,18.00
2018-03-14T06:00:40.476Z,22.03
2018-03-14T06:03:09.849Z,24.90
2018-03-14T06:05:38.728Z,22.33
2018-03-14T06:08:07.350Z,15.70
2018-03-14T06:10:36.739Z,11.90
2018-03-14T06:13:05.310Z,12.93
2018-03-14T06:15:34.002Z,8.13
2018-03-14T06:18:03.502Z,9.80
2018-03-14T06:20:32.057Z,10.43
2018-03-14T06:23:01.292Z,12.00
2018-03-14T06:25:31.024Z,8.87
2018-03-14T06:28:00.345Z,12.80
2018-03-14T06:30:28.894Z,10.53
2018-03-14T06:32:57.663Z,12.27
2018-03-14T06:35:26.696Z,12.43
2018-03-14T06:37:56.019Z,11.13
2018-03-14T06:40:25.689Z,13.87
2018-03-14T06:42:54.250Z,11.37
2018-03-14T06:45:23.128Z,9.57
2018-03-14T06:47:51.916Z,4.53
2018-03-14T06:50:21.202Z,12.57
2018-03-14T06:52:49.758Z,10.77
2018-03-14T06:55:19.280Z,10.60
2018-03-14T06:57:47.841Z,6.53
2018-03-14T07:00:35.023Z,5.30
2018-03-14T07:03:21.200Z,4.50
2018-03-14T07:06:07.520Z,8.43
2018-03-14T07:08:36.073Z,10.57
2018-03-14T07:11:04.640Z,7.00
2018-03-14T07:13:33.470Z,7.47
2018-03-14T07:16:02.044Z,6.57
2018-03-14T07:18:30.581Z,14.83
2018-03-14T07:20:59.428Z,7.50
2018-03-14T07:23:27.974Z,8.03
2018-03-14T07:25:56.532Z,13.70
2018-03-14T07:28:26.109Z,8.93
2018-03-14T07:30:54.677Z,8.97
2018-03-14T07:33:23.263Z,8.93
2018-03-14T07:35:52.464Z,9.63
2018-03-14T07:38:21.348Z,19.30
2018-03-14T07:40:49.904Z,16.03
2018-03-14T07:43:18.614Z,12.30
2018-03-14T07:45:47.175Z,16.20
2018-03-14T07:48:16.682Z,6.63
2018-03-14T07:50:46.324Z,22.53
2018-03-14T07:53:14.756Z,9.00
2018-03-14T07:55:43.960Z,8.53
2018-03-14T07:58:13.347Z,6.83
2018-03-14T08:00:42.559Z,8.63
2018-03-14T08:03:11.003Z,16.73
2018-03-14T08:05:43.660Z,7.03
2018-03-14T08:08:12.622Z,6.03
2018-03-14T08:10:42.547Z,3.53
2018-03-14T08:13:10.999Z,7.70
2018-03-14T08:15:39.500Z,5.17
2018-03-14T08:18:07.977Z,5.13
2018-03-14T08:20:36.402Z,7.20
2018-03-14T08:23:04.835Z,4.47
2018-03-14T08:25:34.367Z,10.53
2018-03-14T08:28:02.791Z,3.37
2018-03-14T08:30:31.991Z,7.57
2018-03-14T08:33:01.234Z,8.53
2018-03-14T08:35:30.534Z,4.63
2018-03-14T08:38:00.633Z,4.87
2018-03-14T08:40:29.262Z,5.37
2018-03-14T08:42:58.773Z,4.47
2018-03-14T08:45:27.340Z,4.73
2018-03-14T08:47:55.940Z,5.17
2018-03-14T08:50:25.213Z,6.03
2018-03-14T08:52:54.591Z,2.73
2018-03-14T08:55:24.639Z,4.07
2018-03-14T08:57:53.189Z,3.33
2018-03-14T09:00:21.736Z,4.57
2018-03-14T09:02:51.105Z,3.70
2018-03-14T09:05:19.872Z,6.20
2018-03-14T09:07:48.442Z,3.53
2018-03-14T09:10:17.144Z,7.97
2018-03-14T09:12:45.801Z,4.40
2018-03-14T09:15:14.377Z,11.87
2018-03-14T09:17:43.740Z,3.73
2018-03-14T09:20:13.093Z,3.10
2018-03-14T09:22:41.651Z,7.83
2018-03-14T09:25:11.144Z,2.83
2018-03-14T09:27:41.089Z,3.10
2018-03-14T09:30:10.610Z,9.07
2018-03-14T09:32:39.166Z,5.87
2018-03-14T09:35:08.500Z,16.30
2018-03-14T09:37:37.876Z,8.70
2018-03-14T09:40:07.643Z,13.17
2018-03-14T09:42:36.266Z,6.63
2018-03-14T09:45:05.643Z,4.93
2018-03-14T09:47:34.868Z,8.67
2018-03-14T09:50:04.876Z,6.03
2018-03-14T09:52:34.336Z,7.33
2018-03-14T09:55:02.893Z,4.07
2018-03-14T09:57:31.461Z,5.63
2018-03-14T10:00:00.829Z,6.17
2018-03-14T10:02:29.690Z,5.37
2018-03-14T10:04:58.237Z,4.93
2018-03-14T10:07:26.988Z,7.47
2018-03-14T10:09:55.548Z,4.37
2018-03-14T10:12:24.097Z,4.90
2018-03-14T10:14:52.809Z,5.47
2018-03-14T10:17:21.448Z,4.00
2018-03-14T10:19:50.183Z,2.47
2018-03-14T10:22:18.870Z,3.40
2018-03-14T10:24:47.408Z,3.93
2018-03-14T10:27:15.973Z,3.40
2018-03-14T10:29:44.592Z,12.63
2018-03-14T10:32:13.933Z,3.70
2018-03-14T10:34:43.249Z,3.70
2018-03-14T10:37:12.067Z,2.50
2018-03-14T10:39:40.625Z,7.50
2018-03-14T10:42:09.239Z,7.00
2018-03-14T10:44:38.426Z,6.30
2018-03-14T10:47:06.980Z,2.90
2018-03-14T10:49:36.164Z,3.87
2018-03-14T10:52:06.496Z,2.40
2018-03-14T10:54:35.037Z,1.80
2018-03-14T10:57:03.603Z,3.03
2018-03-14T10:59:32.313Z,9.97
2018-03-14T11:02:07.194Z,1.30
2018-03-14T11:04:35.807Z,1.97
2018-03-14T11:07:04.391Z,8.90
2018-03-14T11:12:06.600Z,2.53
2018-03-14T11:14:35.173Z,5.37
2018-03-14T11:17:03.789Z,6.07
2018-03-14T11:19:32.416Z,3.00
2018-03-14T11:22:00.973Z,2.90
2018-03-14T11:24:29.526Z,2.97
2018-03-14T11:26:58.969Z,2.57
2018-03-14T11:29:28.168Z,4.47
2018-03-14T11:31:56.795Z,4.37
2018-03-14T11:34:25.487Z,4.60
2018-03-14T11:36:54.070Z,3.00
2018-03-14T11:39:22.624Z,6.83
2018-03-14T11:41:52.098Z,6.33
2018-03-14T11:44:21.024Z,6.13
2018-03-14T11:46:50.355Z,4.30
2018-03-14T11:49:18.972Z,6.13
2018-03-14T11:51:48.188Z,11.80
2018-03-14T11:54:17.198Z,1.90
2018-03-14T11:56:46.564Z,5.50
2018-03-14T11:59:15.117Z,4.37
2018-03-14T12:01:43.680Z,11.97
2018-03-14T12:04:13.765Z,19.43
2018-03-14T12:06:42.324Z,7.13
2018-03-14T12:09:10.956Z,3.47
2018-03-14T12:11:40.337Z,5.03
2018-03-14T12:14:09.537Z,10.50
2018-03-14T12:16:38.097Z,4.03
2018-03-14T12:19:06.704Z,4.53
2018-03-14T12:21:35.267Z,3.00
2018-03-14T12:24:04.665Z,2.67
2018-03-14T12:26:34.030Z,2.33
2018-03-14T12:29:02.605Z,3.53
2018-03-14T12:31:31.925Z,4.40
2018-03-14T12:34:00.538Z,3.70
2018-03-14T12:36:29.104Z,2.43
2018-03-14T12:38:57.707Z,6.13
2018-03-14T12:41:26.402Z,4.43
2018-03-14T12:43:54.967Z,6.90
2018-03-14T12:46:23.512Z,8.43
2018-03-14T12:48:52.881Z,4.87
2018-03-14T12:51:21.442Z,6.53
2018-03-14T12:53:49.994Z,2.43
2018-03-14T12:56:18.810Z,3.20
2018-03-14T12:58:47.385Z,3.40
2018-03-14T13:01:15.940Z,4.47
2018-03-14T13:03:44.560Z,11.50
2018-03-14T13:06:13.101Z,2.20
2018-03-14T13:08:41.685Z,7.40
2018-03-14T13:11:10.278Z,7.57
2018-03-14T13:13:38.832Z,6.63
2018-03-14T13:16:08.463Z,3.93
2018-03-14T13:18:37.157Z,8.03
2018-03-14T13:21:05.742Z,8.67
2018-03-14T13:23:34.971Z,6.30
2018-03-14T13:26:04.128Z,5.50
2018-03-14T13:28:32.681Z,7.23
2018-03-14T13:31:04.250Z,5.97
2018-03-14T13:33:33.391Z,4.77
2018-03-14T13:36:02.794Z,14.23
2018-03-14T13:38:31.367Z,4.87
2018-03-14T13:41:00.278Z,9.70
2018-03-14T13:43:28.852Z,11.80
2018-03-14T13:45:57.475Z,8.43
2018-03-14T13:48:26.081Z,6.10
2018-03-14T13:50:55.727Z,8.73
2018-03-14T13:53:24.281Z,8.37
2018-03-14T13:55:53.213Z,12.60
2018-03-14T13:58:21.906Z,13.80
2018-03-14T14:00:51.409Z,12.37
2018-03-14T14:03:20.191Z,11.30
2018-03-14T14:05:48.877Z,18.70
2018-03-14T14:08:18.376Z,5.77
2018-03-14T14:10:46.973Z,5.60
2018-03-14T14:13:15.521Z,9.60
2018-03-14T14:15:44.210Z,8.17
2018-03-14T14:18:12.821Z,9.97
2018-03-14T14:20:41.498Z,7.27
2018-03-14T14:23:10.050Z,7.07
2018-03-14T14:25:39.076Z,8.67
2018-03-14T14:28:08.449Z,6.97
2018-03-14T14:30:37.942Z,6.03
2018-03-14T14:33:06.541Z,8.63
2018-03-14T14:35:35.452Z,9.60
2018-03-14T14:38:04.012Z,17.10
2018-03-14T14:40:32.628Z,9.27
2018-03-14T14:43:01.189Z,10.60
2018-03-14T14:45:29.740Z,14.03
2018-03-14T14:47:59.241Z,9.50
2018-03-14T14:50:28.588Z,7.17
2018-03-14T14:52:57.148Z,10.50
2018-03-14T14:55:25.761Z,6.60
2018-03-14T14:57:54.351Z,4.80
2018-03-14T15:00:22.912Z,23.20
2018-03-14T15:02:51.513Z,31.33
2018-03-14T15:05:20.065Z,16.40
2018-03-14T15:07:48.973Z,17.73
2018-03-14T15:10:18.704Z,18.17
2018-03-14T15:12:47.266Z,66.77
2018-03-14T15:15:15.844Z,40.83
2018-03-14T15:17:45.220Z,35.93
2018-03-14T15:20:13.786Z,41.47
2018-03-14T15:22:42.341Z,69.17
2018-03-14T15:25:11.086Z,66.87
2018-03-14T15:27:39.657Z,208.13
2018-03-14T15:30:08.222Z,59.97
2018-03-14T15:32:36.922Z,47.67
2018-03-14T15:35:05.482Z,26.50
2018-03-14T15:37:34.038Z,19.83
2018-03-14T15:40:02.657Z,47.03
2018-03-14T15:42:31.213Z,24.67
2018-03-14T15:44:59.776Z,31.43
2018-03-14T15:47:29.329Z,35.40
2018-03-14T15:49:57.912Z,36.83
2018-03-14T15:52:26.472Z,17.10
2018-03-14T15:54:56.057Z,18.70
2018-03-14T15:57:25.380Z,15.73
2018-03-14T15:59:53.944Z,19.00
2018-03-14T16:02:22.641Z,23.47
2018-03-14T16:04:51.195Z,16.67
2018-03-14T16:07:19.765Z,24.00
2018-03-14T16:09:48.481Z,22.30
2018-03-14T16:12:17.055Z,22.27
2018-03-14T16:14:45.649Z,25.67
2018-03-14T16:17:14.309Z,18.90
2018-03-14T16:19:42.864Z,32.50
2018-03-14T16:22:11.685Z,31.20
2018-03-14T16:24:40.429Z,93.37
2018-03-14T16:27:10.533Z,29.37
2018-03-14T16:29:39.303Z,28.40
2018-03-14T16:32:07.908Z,22.37
2018-03-14T16:34:36.469Z,22.10
2018-03-14T16:37:05.042Z,31.17
2018-03-14T16:39:33.654Z,31.73
2018-03-14T16:42:02.216Z,26.23
2018-03-14T16:44:30.792Z,39.80
2018-03-14T16:46:59.792Z,40.13
2018-03-14T16:49:28.682Z,39.70
2018-03-14T16:51:57.246Z,25.90
2018-03-14T16:54:25.857Z,47.13
2018-03-14T16:56:54.440Z,65.43
2018-03-14T16:59:23.055Z,63.33
2018-03-14T17:01:52.453Z,31.90
2018-03-14T17:04:21.783Z,50.13
2018-03-14T17:06:50.349Z,56.73
2018-03-14T17:09:19.084Z,65.17
2018-03-14T17:11:47.649Z,91.83
2018-03-14T17:14:27.134Z,42.50
2018-03-14T17:16:45.761Z,38.23
2018-03-14T17:19:14.317Z,59.70
2018-03-14T17:21:42.878Z,61.30
2018-03-14T17:24:12.354Z,51.27
2018-03-14T17:26:41.725Z,51.67
2018-03-14T17:29:10.281Z,34.27
2018-03-14T17:31:38.908Z,44.80
2018-03-14T17:34:07.479Z,43.90
2018-03-14T17:36:36.036Z,24.60
2018-03-14T17:39:04.713Z,30.97
2018-03-14T17:41:33.280Z,51.63
2018-03-14T17:44:02.609Z,47.60
2018-03-14T17:46:31.596Z,35.77
2018-03-14T17:49:00.209Z,39.20
2018-03-14T17:51:28.799Z,39.93
2018-03-14T17:53:58.367Z,29.87
2018-03-14T17:56:26.941Z,27.17
2018-03-14T17:58:55.628Z,41.43
2018-03-14T18:01:24.374Z,45.30
2018-03-14T18:03:53.824Z,57.77
2018-03-14T18:06:22.509Z,42.90
2018-03-14T18:08:51.600Z,36.10
2018-03-14T18:11:20.188Z,26.93
2018-03-14T18:13:48.741Z,27.10
2018-03-14T18:16:17.353Z,33.07
2018-03-14T18:18:45.905Z,30.73
2018-03-14T18:21:14.485Z,37.63
2018-03-14T18:23:43.846Z,49.73
2018-03-14T18:26:12.538Z,49.73
2018-03-14T18:28:41.228Z,36.87
2018-03-14T18:31:10.168Z,63.23
2018-03-14T18:33:38.728Z,86.63
2018-03-14T18:36:07.292Z,83.03
2018-03-14T18:38:35.909Z,80.07
2018-03-14T18:41:05.285Z,63.20
2018-03-14T18:43:33.863Z,72.43
2018-03-14T18:46:02.489Z,100.97
2018-03-14T18:48:31.859Z,74.33
2018-03-14T18:51:00.429Z,55.00
2018-03-14T18:53:29.045Z,49.50
2018-03-14T18:55:58.368Z,59.97
2018-03-14T18:58:26.929Z,45.73
2018-03-14T19:00:56.305Z,37.30
2018-03-14T19:03:24.876Z,36.63
2018-03-14T19:05:53.561Z,39.57
2018-03-14T19:08:22.559Z,49.47
2018-03-14T19:10:52.064Z,52.07
2018-03-14T19:13:20.749Z,47.10
2018-03-14T19:15:49.405Z,33.40
2018-03-14T19:18:17.944Z,28.20
2018-03-14T19:20:47.421Z,31.23
2018-03-14T19:23:17.197Z,120.97
2018-03-14T19:25:45.940Z,112.70
2018-03-14T19:28:14.931Z,64.47
2018-03-14T19:30:43.898Z,52.07
2018-03-14T19:33:12.543Z,38.00
2018-03-14T19:35:41.273Z,35.23
2018-03-14T19:38:10.708Z,36.13
2018-03-14T19:40:40.042Z,30.57
2018-03-14T19:43:08.638Z,29.10
2018-03-14T19:45:37.409Z,31.57
2018-03-14T19:48:05.965Z,26.73
2018-03-14T19:50:35.286Z,27.13
2018-03-14T19:53:04.672Z,30.13
2018-03-14T19:55:34.037Z,48.73
2018-03-14T19:58:02.722Z,51.60
2018-03-14T20:00:31.466Z,39.37
2018-03-14T20:03:00.192Z,37.90
2018-03-14T20:05:28.826Z,27.77
2018-03-14T20:07:58.387Z,36.47
2018-03-14T20:10:27.088Z,47.40
2018-03-14T20:12:55.649Z,49.93
2018-03-14T20:15:24.344Z,39.97
2018-03-14T20:17:52.920Z,36.23
2018-03-14T20:20:21.607Z,34.67
2018-03-14T20:22:50.600Z,34.30
2018-03-14T20:25:19.189Z,18.10
2018-03-14T20:27:47.781Z,24.23
2018-03-14T20:30:16.386Z,28.70
2018-03-14T20:32:44.940Z,21.60
2018-03-14T20:35:13.567Z,22.60
2018-03-14T20:37:43.024Z,19.30
2018-03-14T20:40:11.706Z,19.60
2018-03-14T20:42:40.417Z,19.53
2018-03-14T20:45:09.135Z,22.23
2018-03-14T20:47:38.457Z,29.60
2018-03-14T20:50:07.135Z,30.40
2018-03-14T20:52:36.114Z,34.80
2018-03-14T20:55:05.580Z,30.17
2018-03-14T20:57:34.918Z,29.67
2018-03-14T21:00:03.550Z,33.50
2018-03-14T21:02:32.238Z,34.20
2018-03-14T21:05:00.825Z,34.37
2018-03-14T21:07:31.862Z,37.80
2018-03-14T21:10:00.417Z,43.07
2018-03-14T21:12:28.973Z,47.67
2018-03-14T21:14:58.737Z,36.50
2018-03-14T21:17:27.288Z,28.27
2018-03-14T21:19:55.838Z,25.73
2018-03-14T21:22:25.311Z,28.87
2018-03-14T21:24:53.998Z,25.17
2018-03-14T21:27:22.572Z,28.63
2018-03-14T21:29:51.363Z,24.83
2018-03-14T21:32:19.917Z,24.40
2018-03-14T21:34:48.465Z,25.73
2018-03-14T21:37:18.029Z,34.57
2018-03-14T21:39:46.793Z,28.80
2018-03-14T21:42:15.589Z,24.17
2018-03-14T21:44:44.513Z,19.93
2018-03-14T21:47:13.829Z,20.63
2018-03-14T21:49:43.473Z,21.97
2018-03-14T21:52:12.849Z,21.80
2018-03-14T21:54:41.465Z,36.90
2018-03-14T21:57:19.793Z,46.47
2018-03-14T21:59:48.377Z,43.90
2018-03-14T22:02:16.925Z,34.97
2018-03-14T22:04:45.594Z,38.20
2018-03-14T22:07:14.889Z,50.80
2018-03-14T22:09:43.440Z,48.10
2018-03-14T22:12:12.345Z,33.87
2018-03-14T22:14:41.832Z,32.13
2018-03-14T22:17:11.320Z,23.13
2018-03-14T22:19:40.412Z,27.20
2018-03-14T22:22:09.085Z,28.97
2018-03-14T22:24:37.784Z,27.07
2018-03-14T22:27:06.568Z,18.17
2018-03-14T22:29:35.213Z,17.47
2018-03-14T22:32:03.941Z,17.87
2018-03-14T22:34:33.099Z,16.90
2018-03-14T22:37:01.852Z,19.57
2018-03-14T22:39:31.182Z,22.33
2018-03-14T22:41:59.914Z,15.20
2018-03-14T22:44:28.597Z,17.20
2018-03-14T22:46:57.257Z,16.10
2018-03-14T22:49:26.176Z,22.50
2018-03-14T22:51:54.863Z,20.20
2018-03-14T22:54:23.550Z,25.73
2018-03-14T22:56:52.682Z,34.17
2018-03-14T22:59:22.102Z,32.47
2018-03-14T23:01:50.838Z,26.63
2018-03-14T23:04:19.432Z,21.10
2018-03-14T23:06:48.157Z,19.23
2018-03-14T23:09:17.605Z,14.53
2018-03-14T23:11:46.339Z,11.93
2018-03-14T23:14:15.803Z,17.33
2018-03-14T23:16:44.428Z,12.97
2018-03-14T23:19:14.092Z,13.10
2018-03-14T23:21:42.713Z,16.10
2018-03-14T23:24:12.179Z,16.27
2018-03-14T23:26:40.862Z,14.13
2018-03-14T23:29:09.550Z,18.70
2018-03-14T23:31:38.185Z,17.10
2018-03-14T23:34:06.921Z,43.97
2018-03-14T23:36:35.508Z,48.63
2018-03-14T23:39:04.291Z,54.93
2018-03-14T23:41:33.287Z,24.00
2018-03-14T23:44:01.979Z,21.30
2018-03-14T23:46:30.527Z,14.13
2018-03-14T23:48:59.441Z,13.73
2018-03-14T23:51:28.126Z,12.83
2018-03-14T23:53:56.820Z,14.97
2018-03-14T23:56:25.515Z,11.80
2018-03-14T23:58:54.282Z,12.30
